Time;durP1;ratioP1;P1;durP2;ratioP2;P2;SDS_P1;SDS_P2;PMS_P1;PMS_P2;Temp;Humidity;BMP_temperature;BMP_pressure;BME280_temperature;BME280_humidity;BME280_pressure;Samples;Min_cycle;Max_cycle;Signal;HPM_P1;HPM_P2
2022/07/22 04:34:44;;;;;;;7.60;6.90;;;;;;;;;;7339584;19;20188;-68
2022/07/22 04:37:09;;;;;;;8.18;7.45;;;;;;;;;;7390689;19;20151;-69
2022/07/22 04:39:35;;;;;;;7.90;7.20;;;;;;;;;;7391265;19;20152;-68
2022/07/22 04:42:00;;;;;;;9.32;7.13;;;;;;;;;;7391271;19;20168;-68
2022/07/22 04:44:26;;;;;;;8.90;7.22;;;;;;;;;;7390304;19;20174;-68
2022/07/22 04:46:51;;;;;;;8.02;7.22;;;;;;;;;;7383681;19;20176;-68
2022/07/22 04:49:17;;;;;;;9.10;7.50;;;;;;;;;;7383480;19;20129;-68
2022/07/22 04:51:42;;;;;;;8.32;7.65;;;;;;;;;;7378186;19;20240;-68
2022/07/22 04:54:07;;;;;;;9.23;8.38;;;;;;;;;;7386162;19;20140;-70
2022/07/22 04:56:33;;;;;;;9.45;8.55;;;;;;;;;;7385000;19;20177;-70
2022/07/22 04:58:58;;;;;;;9.07;8.20;;;;;;;;;;7372167;19;20147;-69
2022/07/22 05:01:23;;;;;;;10.10;9.20;;;;;;;;;;7385263;19;20156;-68
2022/07/22 05:03:49;;;;;;;10.00;8.77;;;;;;;;;;7372986;19;20555;-70
2022/07/22 05:06:14;;;;;;;10.32;9.25;;;;;;;;;;7387272;19;20137;-70
2022/07/22 05:08:39;;;;;;;10.07;9.07;;;;;;;;;;7391118;19;20129;-69
2022/07/22 05:11:05;;;;;;;9.93;8.93;;;;;;;;;;7387536;19;21981;-69
2022/07/22 05:13:30;;;;;;;10.55;8.88;;;;;;;;;;7384143;19;20152;-69
2022/07/22 05:15:55;;;;;;;9.80;8.98;;;;;;;;;;7387828;19;20905;-69
2022/07/22 05:18:21;;;;;;;11.48;9.88;;;;;;;;;;7382824;19;21011;-69
2022/07/22 05:20:46;;;;;;;10.48;9.52;;;;;;;;;;7368586;19;20162;-69
2022/07/22 05:23:11;;;;;;;10.63;9.55;;;;;;;;;;7386586;19;20628;-69
2022/07/22 05:25:37;;;;;;;9.63;8.68;;;;;;;;;;7386184;19;20151;-69
2022/07/22 05:28:02;;;;;;;10.52;9.52;;;;;;;;;;7381260;19;20125;-72
2022/07/22 05:30:27;;;;;;;10.60;9.57;;;;;;;;;;7387520;19;20145;-71
2022/07/22 05:32:53;;;;;;;10.73;9.63;;;;;;;;;;7383525;19;20177;-72
2022/07/22 05:35:19;;;;;;;11.52;10.27;;;;;;;;;;7386936;19;20128;-72
2022/07/22 05:37:44;;;;;;;11.32;10.00;;;;;;;;;;7376846;19;20135;-70
2022/07/22 05:40:10;;;;;;;10.88;9.77;;;;;;;;;;7384621;19;20221;-72
2022/07/22 05:42:35;;;;;;;12.07;10.82;;;;;;;;;;7385893;19;20172;-72
2022/07/22 05:45:00;;;;;;;11.65;10.48;;;;;;;;;;7385955;19;20117;-72
2022/07/22 05:47:26;;;;;;;11.30;10.10;;;;;;;;;;7386019;19;20140;-72
2022/07/22 05:49:51;;;;;;;12.30;10.82;;;;;;;;;;7387549;19;20123;-71
2022/07/22 05:52:16;;;;;;;11.80;10.60;;;;;;;;;;7388100;19;20236;-71
2022/07/22 05:54:42;;;;;;;11.88;10.63;;;;;;;;;;7387289;19;20131;-70
2022/07/22 05:57:10;;;;;;;10.93;9.82;;;;;;;;;;7386855;19;20505;-72
2022/07/22 05:59:36;;;;;;;11.60;10.50;;;;;;;;;;7387220;19;20145;-72
2022/07/22 06:02:02;;;;;;;13.55;12.20;;;;;;;;;;7386542;19;20149;-70
2022/07/22 06:04:27;;;;;;;13.48;11.95;;;;;;;;;;7385545;19;20618;-70
2022/07/22 06:06:52;;;;;;;12.82;11.18;;;;;;;;;;7387707;19;20156;-71
2022/07/22 06:09:18;;;;;;;12.98;11.63;;;;;;;;;;7381284;19;20492;-71
2022/07/22 06:11:43;;;;;;;12.82;11.45;;;;;;;;;;7382369;19;20160;-72
2022/07/22 06:14:08;;;;;;;14.35;12.93;;;;;;;;;;7380859;19;20125;-71
2022/07/22 06:16:34;;;;;;;14.75;12.75;;;;;;;;;;7351877;19;20479;-72
2022/07/22 06:19:00;;;;;;;15.18;13.70;;;;;;;;;;7369833;19;20196;-70
2022/07/22 06:21:25;;;;;;;15.77;13.45;;;;;;;;;;7360067;19;20712;-71
2022/07/22 06:23:50;;;;;;;14.20;12.80;;;;;;;;;;7359175;19;20158;-71
2022/07/22 06:26:16;;;;;;;14.07;12.68;;;;;;;;;;7370321;19;20125;-70
2022/07/22 06:28:41;;;;;;;14.45;13.05;;;;;;;;;;7360070;19;20220;-71
2022/07/22 06:31:06;;;;;;;16.75;12.88;;;;;;;;;;7370668;19;20236;-70
2022/07/22 06:33:33;;;;;;;14.40;12.93;;;;;;;;;;7347226;19;20128;-71
2022/07/22 06:35:59;;;;;;;15.18;13.57;;;;;;;;;;7378591;19;20132;-70
2022/07/22 06:38:24;;;;;;;15.00;12.15;;;;;;;;;;7379784;19;20596;-70
2022/07/22 06:40:49;;;;;;;14.82;12.80;;;;;;;;;;7378243;19;20136;-70
2022/07/22 06:43:15;;;;;;;15.55;12.57;;;;;;;;;;7372399;19;20910;-70
2022/07/22 06:45:40;;;;;;;14.68;12.57;;;;;;;;;;7376319;19;20130;-70
2022/07/22 06:48:05;;;;;;;13.02;11.70;;;;;;;;;;7387356;19;20146;-70
2022/07/22 06:50:31;;;;;;;12.82;11.73;;;;;;;;;;7383150;19;20524;-70
2022/07/22 06:52:56;;;;;;;14.20;12.70;;;;;;;;;;7376024;19;20140;-70
2022/07/22 06:55:21;;;;;;;12.57;11.40;;;;;;;;;;7369405;19;20129;-71
2022/07/22 06:57:47;;;;;;;12.05;10.98;;;;;;;;;;7378119;19;20137;-70
2022/07/22 07:00:13;;;;;;;13.65;12.35;;;;;;;;;;7372162;19;20133;-70
2022/07/22 07:02:38;;;;;;;13.73;12.35;;;;;;;;;;7378614;19;20141;-71
2022/07/22 07:05:04;;;;;;;13.65;12.38;;;;;;;;;;7384126;19;20200;-71
2022/07/22 07:07:29;;;;;;;12.82;11.57;;;;;;;;;;7370283;19;20484;-69
2022/07/22 07:09:54;;;;;;;12.77;11.65;;;;;;;;;;7384182;19;20472;-71
2022/07/22 07:12:20;;;;;;;13.25;12.02;;;;;;;;;;7367392;19;20144;-71
2022/07/22 07:14:45;;;;;;;13.77;12.48;;;;;;;;;;7383373;19;20137;-71
2022/07/22 07:17:10;;;;;;;14.60;13.13;;;;;;;;;;7365604;19;20224;-70
2022/07/22 07:19:36;;;;;;;13.85;12.65;;;;;;;;;;7384165;19;20401;-73
2022/07/22 07:22:01;;;;;;;14.30;12.93;;;;;;;;;;7377984;19;20236;-73
2022/07/22 07:24:26;;;;;;;13.43;12.07;;;;;;;;;;7378376;19;20125;-72
2022/07/22 07:26:51;;;;;;;13.10;11.88;;;;;;;;;;7376175;19;20124;-72
2022/07/22 07:29:17;;;;;;;13.45;12.25;;;;;;;;;;7377949;19;20134;-73
2022/07/22 07:31:42;;;;;;;13.20;12.10;;;;;;;;;;7372615;19;20396;-72
2022/07/22 07:34:07;;;;;;;13.68;12.48;;;;;;;;;;7379002;19;20149;-72
2022/07/22 07:36:33;;;;;;;17.42;15.60;;;;;;;;;;7371430;19;20504;-72
2022/07/22 07:38:58;;;;;;;14.80;13.50;;;;;;;;;;7378799;19;21368;-71
2022/07/22 07:41:23;;;;;;;15.98;14.57;;;;;;;;;;7382427;19;20145;-74
2022/07/22 07:43:49;;;;;;;15.70;14.40;;;;;;;;;;7381301;19;20139;-72
2022/07/22 07:46:14;;;;;;;15.77;13.95;;;;;;;;;;7385909;19;20121;-72
2022/07/22 07:48:39;;;;;;;15.50;14.00;;;;;;;;;;7380989;19;20600;-71
2022/07/22 07:51:05;;;;;;;15.68;14.30;;;;;;;;;;7367645;19;21034;-72
2022/07/22 07:53:31;;;;;;;17.27;15.48;;;;;;;;;;7377447;19;20133;-72
2022/07/22 07:55:56;;;;;;;16.40;14.85;;;;;;;;;;7385803;19;20125;-72
2022/07/22 07:58:21;;;;;;;14.95;13.13;;;;;;;;;;7382402;19;20200;-72
2022/07/22 08:00:47;;;;;;;16.60;15.00;;;;;;;;;;7373646;19;20121;-72
2022/07/22 08:03:12;;;;;;;15.00;13.68;;;;;;;;;;7379338;19;20168;-72
2022/07/22 08:05:38;;;;;;;14.68;13.35;;;;;;;;;;7377178;19;20685;-72
2022/07/22 08:08:04;;;;;;;15.45;14.02;;;;;;;;;;7378014;19;20152;-72
2022/07/22 08:10:30;;;;;;;14.13;12.77;;;;;;;;;;7382673;19;20121;-72
2022/07/22 08:12:57;;;;;;;15.73;14.20;;;;;;;;;;7367751;19;20435;-72
2022/07/22 08:15:23;;;;;;;15.00;13.55;;;;;;;;;;7368594;19;20129;-72
2022/07/22 08:17:49;;;;;;;15.73;14.30;;;;;;;;;;7378672;19;20136;-72
2022/07/22 08:20:14;;;;;;;15.57;14.10;;;;;;;;;;7383974;19;20130;-72
2022/07/22 08:22:39;;;;;;;14.63;13.23;;;;;;;;;;7385318;19;20153;-72
2022/07/22 08:25:05;;;;;;;15.15;13.77;;;;;;;;;;7389401;19;20134;-72
2022/07/22 08:27:30;;;;;;;15.70;14.30;;;;;;;;;;7389338;19;20121;-72
2022/07/22 08:29:56;;;;;;;13.70;12.57;;;;;;;;;;7389919;19;20121;-72
2022/07/22 08:32:21;;;;;;;13.73;12.52;;;;;;;;;;7383055;19;20208;-72
2022/07/22 08:34:47;;;;;;;14.70;13.30;;;;;;;;;;7389805;19;20638;-72
2022/07/22 08:37:12;;;;;;;13.77;12.43;;;;;;;;;;7390064;19;20149;-72
2022/07/22 08:39:38;;;;;;;13.52;12.32;;;;;;;;;;7374818;19;20128;-73
2022/07/22 08:42:03;;;;;;;14.18;12.73;;;;;;;;;;7376636;19;20145;-72
2022/07/22 08:44:32;;;;;;;14.88;13.38;;;;;;;;;;7379605;19;20132;-72
2022/07/22 08:46:59;;;;;;;14.88;13.57;;;;;;;;;;7379799;19;20164;-72
2022/07/22 08:49:24;;;;;;;13.60;12.48;;;;;;;;;;7381475;19;20136;-72
2022/07/22 08:51:50;;;;;;;13.15;12.05;;;;;;;;;;7382003;19;20141;-72
2022/07/22 08:54:15;;;;;;;13.80;12.50;;;;;;;;;;7378865;19;20116;-72
2022/07/22 08:56:42;;;;;;;13.45;12.25;;;;;;;;;;7374699;19;20154;-72
2022/07/22 08:59:07;;;;;;;13.57;12.38;;;;;;;;;;7381647;19;20537;-73
2022/07/22 09:01:33;;;;;;;13.23;12.02;;;;;;;;;;7372327;19;20165;-72
2022/07/22 09:03:58;;;;;;;13.52;12.32;;;;;;;;;;7388197;19;20184;-72
2022/07/22 09:06:26;;;;;;;12.32;11.23;;;;;;;;;;7390851;19;20207;-72
2022/07/22 09:08:59;;;;;;;14.68;13.35;;;;;;;;;;7391122;19;20109;-72
2022/07/22 09:11:28;;;;;;;14.10;12.90;;;;;;;;;;7389832;19;20175;-72
2022/07/22 09:13:54;;;;;;;13.88;12.65;;;;;;;;;;7383018;19;20137;-72
2022/07/22 09:16:43;;;;;;;13.95;12.45;;;;;;;;;;7390647;19;20125;-72
2022/07/22 09:19:09;;;;;;;13.40;12.20;;;;;;;;;;7387521;19;20140;-72
2022/07/22 09:21:37;;;;;;;14.23;13.00;;;;;;;;;;7381113;19;20180;-72
2022/07/22 09:24:04;;;;;;;14.18;12.73;;;;;;;;;;7388732;19;20137;-72
2022/07/22 09:26:36;;;;;;;14.45;13.05;;;;;;;;;;7389410;19;20506;-72
2022/07/22 09:29:03;;;;;;;13.63;12.52;;;;;;;;;;7380611;19;20515;-72
2022/07/22 09:31:33;;;;;;;13.27;12.07;;;;;;;;;;7389853;19;20137;-72
2022/07/22 09:33:59;;;;;;;15.02;13.50;;;;;;;;;;7384933;19;20144;-72
2022/07/22 09:36:24;;;;;;;13.70;12.50;;;;;;;;;;7391999;19;20474;-72
2022/07/22 09:38:49;;;;;;;15.07;13.77;;;;;;;;;;7389742;19;20128;-72
2022/07/22 09:41:15;;;;;;;13.93;12.68;;;;;;;;;;7388728;19;20157;-72
2022/07/22 09:43:40;;;;;;;14.35;13.18;;;;;;;;;;7380211;19;20593;-72
2022/07/22 09:46:06;;;;;;;14.07;12.82;;;;;;;;;;7383141;19;20125;-72
2022/07/22 09:48:31;;;;;;;15.02;13.57;;;;;;;;;;7372162;19;20121;-72
2022/07/22 09:50:58;;;;;;;14.38;13.00;;;;;;;;;;7390541;19;20525;-72
2022/07/22 09:53:28;;;;;;;14.15;12.75;;;;;;;;;;7387634;19;20166;-72
2022/07/22 09:55:54;;;;;;;15.05;13.40;;;;;;;;;;7388238;19;20121;-72
2022/07/22 09:58:19;;;;;;;13.43;12.32;;;;;;;;;;7387680;19;20172;-72
2022/07/22 10:00:45;;;;;;;12.77;11.77;;;;;;;;;;7381613;19;20148;-72
2022/07/22 10:03:13;;;;;;;14.07;12.98;;;;;;;;;;7387830;19;20138;-73
2022/07/22 10:05:40;;;;;;;14.43;13.02;;;;;;;;;;7388079;19;20156;-73
2022/07/22 10:08:06;;;;;;;14.00;12.77;;;;;;;;;;7379283;19;20607;-72
2022/07/22 10:10:33;;;;;;;13.70;12.27;;;;;;;;;;7388121;19;20583;-72
2022/07/22 10:13:00;;;;;;;13.60;12.50;;;;;;;;;;7390762;19;20649;-72
2022/07/22 10:15:27;;;;;;;14.07;12.80;;;;;;;;;;7387076;19;20162;-72
2022/07/22 10:17:54;;;;;;;13.93;12.63;;;;;;;;;;7387561;19;20623;-72
2022/07/22 10:20:22;;;;;;;13.40;12.05;;;;;;;;;;7379595;19;20129;-72
2022/07/22 10:22:53;;;;;;;14.15;12.95;;;;;;;;;;7385969;19;20180;-72
2022/07/22 10:25:20;;;;;;;12.30;11.27;;;;;;;;;;7388200;19;20168;-72
2022/07/22 10:27:56;;;;;;;12.40;11.40;;;;;;;;;;7376596;19;20594;-72
2022/07/22 10:30:28;;;;;;;12.07;10.95;;;;;;;;;;7384435;19;20124;-72
2022/07/22 10:33:11;;;;;;;13.00;11.90;;;;;;;;;;7387819;19;20149;-72
2022/07/22 10:35:53;;;;;;;11.60;10.70;;;;;;;;;;7387123;19;20131;-72
2022/07/22 10:38:21;;;;;;;12.10;10.98;;;;;;;;;;7379475;19;20495;-72
2022/07/22 10:41:04;;;;;;;12.23;11.23;;;;;;;;;;7387130;19;20132;-72
2022/07/22 10:43:31;;;;;;;12.75;11.55;;;;;;;;;;7389854;19;20610;-72
2022/07/22 10:45:57;;;;;;;12.80;11.73;;;;;;;;;;7389252;19;20864;-72
2022/07/22 10:48:24;;;;;;;12.13;11.10;;;;;;;;;;7381236;19;20237;-71
2022/07/22 10:50:54;;;;;;;12.48;11.38;;;;;;;;;;7387007;19;20540;-72
2022/07/22 10:53:22;;;;;;;12.15;11.05;;;;;;;;;;7380668;19;20129;-72
2022/07/22 10:56:02;;;;;;;12.25;11.00;;;;;;;;;;7385871;19;20152;-72
2022/07/22 10:58:33;;;;;;;12.02;10.93;;;;;;;;;;7389487;19;20129;-72
2022/07/22 11:01:10;;;;;;;12.15;10.95;;;;;;;;;;7384298;19;20173;-72
2022/07/22 11:03:38;;;;;;;12.27;11.13;;;;;;;;;;7386416;19;20581;-72
2022/07/22 11:06:28;;;;;;;11.85;10.95;;;;;;;;;;7387813;19;20225;-72
2022/07/22 11:08:57;;;;;;;11.77;10.88;;;;;;;;;;7386666;19;20127;-71
2022/07/22 11:11:43;;;;;;;11.70;10.80;;;;;;;;;;7386025;19;20516;-72
2022/07/22 11:14:35;;;;;;;10.88;9.98;;;;;;;;;;7384719;19;20129;-72
2022/07/22 11:17:06;;;;;;;11.90;11.00;;;;;;;;;;7386110;19;20453;-72
2022/07/22 11:19:32;;;;;;;12.05;10.65;;;;;;;;;;7379649;19;20140;-72
2022/07/22 11:22:06;;;;;;;11.32;10.50;;;;;;;;;;7382777;19;20185;-72
2022/07/22 11:24:32;;;;;;;11.43;10.43;;;;;;;;;;7386088;19;20587;-72
2022/07/22 11:26:59;;;;;;;11.27;10.27;;;;;;;;;;7387873;19;20489;-72
2022/07/22 11:29:35;;;;;;;12.93;10.52;;;;;;;;;;7381150;19;20118;-72
2022/07/22 11:32:04;;;;;;;11.68;10.68;;;;;;;;;;7385939;19;20885;-72
2022/07/22 11:34:29;;;;;;;11.85;10.90;;;;;;;;;;7385445;19;20204;-72
2022/07/22 11:36:55;;;;;;;10.82;10.00;;;;;;;;;;7377397;19;20134;-71
2022/07/22 11:39:23;;;;;;;11.73;10.63;;;;;;;;;;7380480;19;20117;-71
2022/07/22 11:41:49;;;;;;;10.77;9.98;;;;;;;;;;7384597;19;20144;-71
2022/07/22 11:44:21;;;;;;;10.77;9.88;;;;;;;;;;7386411;19;20125;-71
2022/07/22 11:46:48;;;;;;;12.05;10.45;;;;;;;;;;7385643;19;20121;-71
2022/07/22 11:49:14;;;;;;;10.30;9.50;;;;;;;;;;7386165;19;20121;-72
2022/07/22 11:51:40;;;;;;;11.15;10.25;;;;;;;;;;7362130;19;20217;-71
2022/07/22 11:54:05;;;;;;;11.25;10.40;;;;;;;;;;7380626;19;20129;-72
2022/07/22 11:56:31;;;;;;;11.75;10.60;;;;;;;;;;7384523;19;20109;-71
2022/07/22 11:58:57;;;;;;;10.77;9.95;;;;;;;;;;7370873;19;20654;-71
2022/07/22 12:01:25;;;;;;;12.23;11.00;;;;;;;;;;7377411;19;20227;-72
2022/07/22 12:03:52;;;;;;;11.23;10.18;;;;;;;;;;7372164;19;20620;-71
2022/07/22 12:06:19;;;;;;;10.13;9.43;;;;;;;;;;7385268;19;20144;-71
2022/07/22 12:08:47;;;;;;;11.48;10.45;;;;;;;;;;7380707;19;20163;-71
2022/07/22 12:11:15;;;;;;;11.68;10.18;;;;;;;;;;7376108;19;20152;-72
2022/07/22 12:13:45;;;;;;;11.27;10.25;;;;;;;;;;7375248;19;20128;-72
2022/07/22 12:16:24;;;;;;;10.90;9.90;;;;;;;;;;7382625;19;20129;-72
2022/07/22 12:18:52;;;;;;;11.05;10.02;;;;;;;;;;7385908;19;20117;-71
2022/07/22 12:21:18;;;;;;;11.05;9.60;;;;;;;;;;7386286;19;20157;-71
2022/07/22 12:23:50;;;;;;;10.23;9.50;;;;;;;;;;7384842;19;20121;-71
2022/07/22 12:26:15;;;;;;;11.07;10.07;;;;;;;;;;7375055;19;20499;-72
2022/07/22 12:28:40;;;;;;;10.80;10.00;;;;;;;;;;7379425;19;20117;-71
2022/07/22 12:31:06;;;;;;;11.40;10.40;;;;;;;;;;7378457;19;20168;-71
2022/07/22 12:33:31;;;;;;;11.40;10.50;;;;;;;;;;7375618;19;20129;-71
2022/07/22 12:36:05;;;;;;;10.80;9.88;;;;;;;;;;7387495;19;20462;-71
2022/07/22 12:38:31;;;;;;;10.70;9.90;;;;;;;;;;7372219;19;20117;-72
2022/07/22 12:40:57;;;;;;;12.85;10.35;;;;;;;;;;7375428;19;20148;-71
2022/07/22 12:43:26;;;;;;;11.38;10.38;;;;;;;;;;7385103;19;20146;-71
2022/07/22 12:45:52;;;;;;;10.93;9.82;;;;;;;;;;7383676;19;20588;-71
2022/07/22 12:48:17;;;;;;;11.70;10.70;;;;;;;;;;7380107;19;20583;-71
2022/07/22 12:50:56;;;;;;;11.32;10.23;;;;;;;;;;7370851;19;20121;-71
2022/07/22 12:53:22;;;;;;;11.55;10.50;;;;;;;;;;7375371;19;20133;-72
2022/07/22 12:55:57;;;;;;;10.38;9.30;;;;;;;;;;7381402;19;20128;-71
2022/07/22 12:58:28;;;;;;;10.65;9.85;;;;;;;;;;7377302;19;20158;-71
2022/07/22 13:00:56;;;;;;;10.30;9.50;;;;;;;;;;7370337;19;20244;-71
2022/07/22 13:03:23;;;;;;;10.35;9.57;;;;;;;;;;7381664;19;20135;-71
2022/07/22 13:05:50;;;;;;;10.07;9.38;;;;;;;;;;7378851;19;20129;-72
2022/07/22 13:08:15;;;;;;;10.95;10.05;;;;;;;;;;7383588;19;20487;-71
2022/07/22 13:10:41;;;;;;;10.52;9.73;;;;;;;;;;7386333;19;20120;-71
2022/07/22 13:13:06;;;;;;;11.02;10.13;;;;;;;;;;7392167;19;20611;-71
2022/07/22 13:15:32;;;;;;;10.05;9.35;;;;;;;;;;7382367;19;20611;-71
2022/07/22 13:17:57;;;;;;;9.90;9.10;;;;;;;;;;7389420;19;20117;-71
2022/07/22 13:20:22;;;;;;;11.05;10.00;;;;;;;;;;7382198;19;20236;-71
2022/07/22 13:22:48;;;;;;;10.93;9.55;;;;;;;;;;7385967;19;20145;-71
2022/07/22 13:25:13;;;;;;;10.68;9.77;;;;;;;;;;7382014;19;20169;-72
2022/07/22 13:27:39;;;;;;;10.27;9.27;;;;;;;;;;7386367;19;20193;-71
2022/07/22 13:30:05;;;;;;;9.95;9.05;;;;;;;;;;7382934;19;20125;-71
2022/07/22 13:32:31;;;;;;;10.10;9.20;;;;;;;;;;7379145;19;20149;-71
2022/07/22 13:34:56;;;;;;;10.75;9.85;;;;;;;;;;7386033;19;20730;-71
2022/07/22 13:37:22;;;;;;;10.30;9.48;;;;;;;;;;7390655;19;20117;-72
2022/07/22 13:39:48;;;;;;;9.70;8.98;;;;;;;;;;7380709;19;20125;-72
2022/07/22 13:42:17;;;;;;;9.75;9.05;;;;;;;;;;7384658;19;20159;-71
2022/07/22 13:44:42;;;;;;;10.52;9.73;;;;;;;;;;7381574;19;20137;-71
2022/07/22 13:47:08;;;;;;;9.40;8.60;;;;;;;;;;7389020;19;20486;-72
2022/07/22 13:49:33;;;;;;;9.65;8.75;;;;;;;;;;7381598;19;20121;-71
2022/07/22 13:51:58;;;;;;;10.43;9.52;;;;;;;;;;7386703;19;20157;-71
2022/07/22 13:54:24;;;;;;;9.93;9.23;;;;;;;;;;7370090;19;20117;-71
2022/07/22 13:56:49;;;;;;;9.63;8.85;;;;;;;;;;7377415;19;20141;-71
2022/07/22 13:59:15;;;;;;;9.80;9.00;;;;;;;;;;7380477;19;20567;-71
2022/07/22 14:01:41;;;;;;;9.32;8.63;;;;;;;;;;7382681;19;20152;-72
2022/07/22 14:04:06;;;;;;;9.70;8.90;;;;;;;;;;7385062;19;20120;-71
2022/07/22 14:06:33;;;;;;;10.07;9.27;;;;;;;;;;7389068;19;20729;-71
2022/07/22 14:08:58;;;;;;;9.75;8.95;;;;;;;;;;7384910;19;20157;-72
2022/07/22 14:11:23;;;;;;;9.55;8.75;;;;;;;;;;7381040;19;20149;-71
2022/07/22 14:13:49;;;;;;;9.80;9.07;;;;;;;;;;7383962;19;20120;-71
2022/07/22 14:18:58;;;;;;;9.45;8.63;;;;;;;;;;7381999;19;20129;-71
2022/07/22 14:21:23;;;;;;;10.23;9.23;;;;;;;;;;7358899;19;20153;-71
2022/07/22 14:23:48;;;;;;;10.27;9.32;;;;;;;;;;7379600;19;20128;-71
2022/07/22 14:26:14;;;;;;;8.95;8.25;;;;;;;;;;7382435;19;20448;-71
2022/07/22 14:28:39;;;;;;;10.35;9.43;;;;;;;;;;7388818;19;20154;-71
2022/07/22 14:31:04;;;;;;;8.27;7.65;;;;;;;;;;7377011;19;20926;-71
2022/07/22 14:33:30;;;;;;;8.50;7.90;;;;;;;;;;7387936;19;20145;-71
2022/07/22 14:35:55;;;;;;;8.73;7.93;;;;;;;;;;7378462;19;20121;-71
2022/07/22 14:38:20;;;;;;;9.15;8.45;;;;;;;;;;7386307;19;20129;-71
2022/07/22 14:40:46;;;;;;;8.93;8.10;;;;;;;;;;7386972;19;20124;-72
2022/07/22 14:43:11;;;;;;;9.18;8.50;;;;;;;;;;7379903;19;20151;-71
2022/07/22 14:45:36;;;;;;;8.18;7.57;;;;;;;;;;7374483;19;20172;-71
2022/07/22 14:48:02;;;;;;;8.18;7.47;;;;;;;;;;7378273;19;20128;-72
2022/07/22 14:50:27;;;;;;;9.50;8.23;;;;;;;;;;7378565;19;20129;-71
2022/07/22 14:52:53;;;;;;;9.02;8.43;;;;;;;;;;7358060;19;20524;-71
2022/07/22 14:55:18;;;;;;;8.00;7.40;;;;;;;;;;7375381;19;20482;-72
2022/07/22 14:57:43;;;;;;;8.80;8.00;;;;;;;;;;7376912;19;20145;-71
2022/07/22 15:00:09;;;;;;;8.30;7.53;;;;;;;;;;7378090;19;20140;-71
2022/07/22 15:02:34;;;;;;;8.57;7.75;;;;;;;;;;7374027;19;20156;-72
2022/07/22 15:05:00;;;;;;;8.18;7.43;;;;;;;;;;7355451;19;20126;-71
2022/07/22 15:07:25;;;;;;;7.75;7.10;;;;;;;;;;7358659;19;20121;-71
2022/07/22 15:09:50;;;;;;;7.70;7.05;;;;;;;;;;7360309;19;20128;-71
2022/07/22 15:12:15;;;;;;;7.50;6.90;;;;;;;;;;7363829;19;20145;-71
2022/07/22 15:14:41;;;;;;;7.25;6.43;;;;;;;;;;7371353;19;20129;-71
2022/07/22 15:17:07;;;;;;;7.85;7.25;;;;;;;;;;7365536;19;20462;-72
2022/07/22 15:19:33;;;;;;;8.07;7.47;;;;;;;;;;7366597;19;20129;-71
2022/07/22 15:21:58;;;;;;;7.82;7.13;;;;;;;;;;7357053;19;20144;-71
2022/07/22 15:24:23;;;;;;;7.30;6.70;;;;;;;;;;7372427;19;20121;-71
2022/07/22 15:26:49;;;;;;;7.60;6.97;;;;;;;;;;7378427;19;20599;-71
2022/07/22 15:29:15;;;;;;;6.97;6.40;;;;;;;;;;7377089;19;20121;-71
2022/07/22 15:31:41;;;;;;;8.05;7.35;;;;;;;;;;7366237;19;20172;-72
2022/07/22 15:34:06;;;;;;;7.75;7.15;;;;;;;;;;7370645;19;20201;-70
2022/07/22 15:36:32;;;;;;;7.78;6.97;;;;;;;;;;7383761;19;20140;-70
2022/07/22 15:38:57;;;;;;;7.60;6.90;;;;;;;;;;7373470;19;20200;-70
2022/07/22 15:41:22;;;;;;;6.97;6.47;;;;;;;;;;7381857;19;20161;-72
2022/07/22 15:43:48;;;;;;;6.95;6.45;;;;;;;;;;7367874;19;20121;-72
2022/07/22 15:46:13;;;;;;;7.22;6.72;;;;;;;;;;7370974;19;20124;-72
2022/07/22 15:48:41;;;;;;;6.72;6.15;;;;;;;;;;7376273;19;20125;-72
2022/07/22 15:51:08;;;;;;;7.40;6.70;;;;;;;;;;7389011;19;20152;-72
2022/07/22 15:53:33;;;;;;;7.65;7.05;;;;;;;;;;7370720;19;20113;-72
2022/07/22 15:55:59;;;;;;;7.50;6.90;;;;;;;;;;7375123;19;20124;-72
2022/07/22 16:01:09;;;;;;;7.20;6.70;;;;;;;;;;7373812;19;20169;-72
2022/07/22 16:03:34;;;;;;;7.63;7.03;;;;;;;;;;7361802;19;20552;-72
2022/07/22 16:06:00;;;;;;;7.35;6.75;;;;;;;;;;7374920;19;20542;-72
2022/07/22 16:08:26;;;;;;;8.10;7.50;;;;;;;;;;7360162;19;20121;-72
2022/07/22 16:10:51;;;;;;;7.30;6.70;;;;;;;;;;7371677;19;20132;-70
2022/07/22 16:13:17;;;;;;;7.38;6.80;;;;;;;;;;7361333;19;20125;-70
2022/07/22 16:15:43;;;;;;;7.30;6.70;;;;;;;;;;7361163;19;20141;-70
2022/07/22 16:18:09;;;;;;;6.82;6.22;;;;;;;;;;7361275;19;20125;-70
2022/07/22 16:20:34;;;;;;;7.55;6.75;;;;;;;;;;7373453;19;20132;-70
2022/07/22 16:22:59;;;;;;;7.05;6.45;;;;;;;;;;7362060;19;20145;-70
2022/07/22 16:25:25;;;;;;;7.13;6.53;;;;;;;;;;7379118;19;20136;-70
2022/07/22 16:27:50;;;;;;;6.70;6.20;;;;;;;;;;7366098;19;20595;-69
2022/07/22 16:30:15;;;;;;;9.43;7.55;;;;;;;;;;7376360;19;20632;-70
2022/07/22 16:32:41;;;;;;;6.85;6.35;;;;;;;;;;7371055;19;20149;-70
2022/07/22 16:35:07;;;;;;;7.18;6.68;;;;;;;;;;7363277;19;20215;-69
2022/07/22 16:37:33;;;;;;;7.00;6.50;;;;;;;;;;7378062;19;20132;-69
2022/07/22 16:39:58;;;;;;;7.30;6.63;;;;;;;;;;7374486;19;20124;-72
2022/07/22 16:42:23;;;;;;;7.38;6.78;;;;;;;;;;7363317;19;20176;-73
2022/07/22 16:44:49;;;;;;;7.63;6.93;;;;;;;;;;7375498;19;20192;-72
2022/07/22 16:47:14;;;;;;;8.73;7.93;;;;;;;;;;7368788;19;20184;-72
2022/07/22 16:49:39;;;;;;;7.70;7.00;;;;;;;;;;7360680;19;20153;-72
2022/07/22 16:52:05;;;;;;;7.72;7.10;;;;;;;;;;7361422;19;20153;-73
2022/07/22 16:54:30;;;;;;;7.47;6.78;;;;;;;;;;7351519;19;20130;-72
2022/07/22 16:56:57;;;;;;;7.63;7.03;;;;;;;;;;7376801;19;20129;-72
2022/07/22 16:59:23;;;;;;;7.75;7.05;;;;;;;;;;7378983;19;20196;-73
2022/07/22 17:01:48;;;;;;;11.85;10.75;;;;;;;;;;7378378;19;20172;-72
2022/07/22 17:04:14;;;;;;;9.43;8.60;;;;;;;;;;7377951;19;20500;-72
2022/07/22 17:06:39;;;;;;;7.90;7.13;;;;;;;;;;7375169;19;20542;-72
2022/07/22 17:09:04;;;;;;;8.45;7.65;;;;;;;;;;7379788;19;20479;-72
2022/07/22 17:11:30;;;;;;;8.15;7.45;;;;;;;;;;7377902;19;20153;-72
2022/07/22 17:13:55;;;;;;;9.23;7.75;;;;;;;;;;7381164;19;20117;-73
2022/07/22 17:16:20;;;;;;;8.98;8.07;;;;;;;;;;7372876;19;20196;-72
2022/07/22 17:18:46;;;;;;;8.73;7.93;;;;;;;;;;7374379;19;20201;-72
2022/07/22 17:21:13;;;;;;;8.55;7.82;;;;;;;;;;7378759;19;20145;-70
2022/07/22 17:23:39;;;;;;;7.82;7.15;;;;;;;;;;7372467;19;20185;-70
2022/07/22 17:26:05;;;;;;;8.25;7.60;;;;;;;;;;7378132;19;20479;-69
2022/07/22 17:28:30;;;;;;;8.07;7.45;;;;;;;;;;7370329;19;20136;-70
2022/07/22 17:30:55;;;;;;;8.40;7.70;;;;;;;;;;7372785;19;20631;-70
2022/07/22 17:33:21;;;;;;;9.93;9.02;;;;;;;;;;7368585;19;20140;-70
2022/07/22 17:35:46;;;;;;;9.73;8.82;;;;;;;;;;7361255;19;20754;-70
2022/07/22 17:38:12;;;;;;;9.02;8.32;;;;;;;;;;7379858;19;20128;-70
2022/07/22 17:40:38;;;;;;;8.95;8.25;;;;;;;;;;7380295;19;20199;-72
2022/07/22 17:43:03;;;;;;;8.55;7.95;;;;;;;;;;7381021;19;20137;-72
